sensor_id;sensor_type;location;lat;lon;timestamp;P1;durP1;ratioP1;P2;durP2;ratioP2
54261;SDS011;40174;52.364;6.452;2022-08-01T00:01:24;7.75;;;2.88;;
54261;SDS011;40174;52.364;6.452;2022-08-01T00:03:51;7.15;;;2.42;;
54261;SDS011;40174;52.364;6.452;2022-08-01T00:06:17;6.82;;;2.80;;
54261;SDS011;40174;52.364;6.452;2022-08-01T00:08:44;6.40;;;2.88;;
54261;SDS011;40174;52.364;6.452;2022-08-01T00:11:11;5.40;;;2.55;;
54261;SDS011;40174;52.364;6.452;2022-08-01T00:13:37;7.25;;;3.03;;
54261;SDS011;40174;52.364;6.452;2022-08-01T00:16:04;6.72;;;2.55;;
54261;SDS011;40174;52.364;6.452;2022-08-01T00:18:33;5.70;;;2.30;;
54261;SDS011;40174;52.364;6.452;2022-08-01T00:21:00;6.53;;;2.67;;
54261;SDS011;40174;52.364;6.452;2022-08-01T00:23:27;5.93;;;2.28;;
54261;SDS011;40174;52.364;6.452;2022-08-01T00:25:54;5.38;;;2.38;;
54261;SDS011;40174;52.364;6.452;2022-08-01T00:28:20;9.48;;;3.10;;
54261;SDS011;40174;52.364;6.452;2022-08-01T00:30:47;6.05;;;2.17;;
54261;SDS011;40174;52.364;6.452;2022-08-01T00:33:13;7.55;;;2.78;;
54261;SDS011;40174;52.364;6.452;2022-08-01T00:35:41;6.88;;;2.33;;
54261;SDS011;40174;52.364;6.452;2022-08-01T00:38:08;6.20;;;1.90;;
54261;SDS011;40174;52.364;6.452;2022-08-01T00:40:34;6.32;;;2.10;;
54261;SDS011;40174;52.364;6.452;2022-08-01T00:43:01;5.80;;;2.33;;
54261;SDS011;40174;52.364;6.452;2022-08-01T00:45:27;11.05;;;2.40;;
54261;SDS011;40174;52.364;6.452;2022-08-01T00:47:54;4.68;;;2.15;;
54261;SDS011;40174;52.364;6.452;2022-08-01T00:50:20;10.63;;;2.45;;
54261;SDS011;40174;52.364;6.452;2022-08-01T00:52:49;5.90;;;2.10;;
54261;SDS011;40174;52.364;6.452;2022-08-01T00:55:16;5.85;;;2.08;;
54261;SDS011;40174;52.364;6.452;2022-08-01T00:57:45;7.65;;;2.42;;
54261;SDS011;40174;52.364;6.452;2022-08-01T01:00:12;6.22;;;2.28;;
54261;SDS011;40174;52.364;6.452;2022-08-01T01:02:39;7.35;;;2.35;;
54261;SDS011;40174;52.364;6.452;2022-08-01T01:05:06;5.60;;;2.28;;
54261;SDS011;40174;52.364;6.452;2022-08-01T01:07:34;5.90;;;2.20;;
54261;SDS011;40174;52.364;6.452;2022-08-01T01:10:19;5.43;;;2.25;;
54261;SDS011;40174;52.364;6.452;2022-08-01T01:12:50;4.68;;;1.90;;
54261;SDS011;40174;52.364;6.452;2022-08-01T01:15:22;5.95;;;2.45;;
54261;SDS011;40174;52.364;6.452;2022-08-01T01:17:54;5.50;;;1.85;;
54261;SDS011;40174;52.364;6.452;2022-08-01T01:20:24;8.65;;;2.05;;
54261;SDS011;40174;52.364;6.452;2022-08-01T01:22:57;5.32;;;1.90;;
54261;SDS011;40174;52.364;6.452;2022-08-01T01:25:46;5.00;;;2.08;;
54261;SDS011;40174;52.364;6.452;2022-08-01T01:28:27;4.65;;;2.05;;
54261;SDS011;40174;52.364;6.452;2022-08-01T01:31:01;5.03;;;1.83;;
54261;SDS011;40174;52.364;6.452;2022-08-01T01:33:29;4.07;;;1.95;;
54261;SDS011;40174;52.364;6.452;2022-08-01T01:35:59;3.17;;;1.50;;
54261;SDS011;40174;52.364;6.452;2022-08-01T01:38:32;4.32;;;1.63;;
54261;SDS011;40174;52.364;6.452;2022-08-01T01:41:00;4.68;;;1.88;;
54261;SDS011;40174;52.364;6.452;2022-08-01T01:43:30;3.40;;;1.20;;
54261;SDS011;40174;52.364;6.452;2022-08-01T01:45:59;4.00;;;1.70;;
54261;SDS011;40174;52.364;6.452;2022-08-01T01:48:28;4.20;;;1.80;;
54261;SDS011;40174;52.364;6.452;2022-08-01T01:50:55;4.30;;;1.60;;
54261;SDS011;40174;52.364;6.452;2022-08-01T01:53:23;4.28;;;1.50;;
54261;SDS011;40174;52.364;6.452;2022-08-01T01:55:52;7.38;;;1.70;;
54261;SDS011;40174;52.364;6.452;2022-08-01T01:58:21;4.40;;;1.58;;
54261;SDS011;40174;52.364;6.452;2022-08-01T02:00:50;3.42;;;1.70;;
54261;SDS011;40174;52.364;6.452;2022-08-01T02:03:19;4.35;;;1.58;;
54261;SDS011;40174;52.364;6.452;2022-08-01T02:05:48;3.75;;;1.70;;
54261;SDS011;40174;52.364;6.452;2022-08-01T02:08:17;4.28;;;1.40;;
54261;SDS011;40174;52.364;6.452;2022-08-01T02:10:44;3.25;;;1.65;;
54261;SDS011;40174;52.364;6.452;2022-08-01T02:13:32;5.95;;;1.50;;
54261;SDS011;40174;52.364;6.452;2022-08-01T02:16:02;4.50;;;1.63;;
54261;SDS011;40174;52.364;6.452;2022-08-01T02:18:31;3.50;;;1.70;;
54261;SDS011;40174;52.364;6.452;2022-08-01T02:20:58;3.33;;;1.40;;
54261;SDS011;40174;52.364;6.452;2022-08-01T02:23:27;3.45;;;1.48;;
54261;SDS011;40174;52.364;6.452;2022-08-01T02:25:57;3.05;;;1.33;;
54261;SDS011;40174;52.364;6.452;2022-08-01T02:28:28;3.38;;;1.58;;
54261;SDS011;40174;52.364;6.452;2022-08-01T02:31:00;3.72;;;1.70;;
54261;SDS011;40174;52.364;6.452;2022-08-01T02:33:33;5.03;;;1.50;;
54261;SDS011;40174;52.364;6.452;2022-08-01T02:36:03;4.28;;;1.90;;
54261;SDS011;40174;52.364;6.452;2022-08-01T02:38:33;4.30;;;1.73;;
54261;SDS011;40174;52.364;6.452;2022-08-01T02:41:05;5.00;;;2.30;;
54261;SDS011;40174;52.364;6.452;2022-08-01T02:43:35;4.72;;;1.95;;
54261;SDS011;40174;52.364;6.452;2022-08-01T02:46:04;4.05;;;1.85;;
54261;SDS011;40174;52.364;6.452;2022-08-01T02:48:36;6.60;;;2.20;;
54261;SDS011;40174;52.364;6.452;2022-08-01T02:51:07;4.93;;;1.95;;
54261;SDS011;40174;52.364;6.452;2022-08-01T02:53:37;4.78;;;1.83;;
54261;SDS011;40174;52.364;6.452;2022-08-01T02:56:07;5.72;;;2.35;;
54261;SDS011;40174;52.364;6.452;2022-08-01T02:58:36;5.97;;;2.42;;
54261;SDS011;40174;52.364;6.452;2022-08-01T03:01:04;4.78;;;2.28;;
54261;SDS011;40174;52.364;6.452;2022-08-01T03:03:32;4.55;;;2.00;;
54261;SDS011;40174;52.364;6.452;2022-08-01T03:06:01;5.07;;;2.30;;
54261;SDS011;40174;52.364;6.452;2022-08-01T03:08:28;5.28;;;2.13;;
54261;SDS011;40174;52.364;6.452;2022-08-01T03:10:56;6.50;;;2.47;;
54261;SDS011;40174;52.364;6.452;2022-08-01T03:13:25;5.63;;;2.40;;
54261;SDS011;40174;52.364;6.452;2022-08-01T03:15:53;6.63;;;2.20;;
54261;SDS011;40174;52.364;6.452;2022-08-01T03:18:21;5.07;;;2.40;;
54261;SDS011;40174;52.364;6.452;2022-08-01T03:20:50;5.03;;;2.15;;
54261;SDS011;40174;52.364;6.452;2022-08-01T03:23:21;7.88;;;2.38;;
54261;SDS011;40174;52.364;6.452;2022-08-01T03:25:49;5.38;;;2.33;;
54261;SDS011;40174;52.364;6.452;2022-08-01T03:28:17;6.32;;;2.70;;
54261;SDS011;40174;52.364;6.452;2022-08-01T03:30:46;6.40;;;2.67;;
54261;SDS011;40174;52.364;6.452;2022-08-01T03:33:14;6.18;;;2.85;;
54261;SDS011;40174;52.364;6.452;2022-08-01T03:35:42;8.70;;;3.13;;
54261;SDS011;40174;52.364;6.452;2022-08-01T03:38:13;6.25;;;2.85;;
54261;SDS011;40174;52.364;6.452;2022-08-01T03:40:49;7.32;;;3.13;;
54261;SDS011;40174;52.364;6.452;2022-08-01T03:43:20;7.05;;;2.83;;
54261;SDS011;40174;52.364;6.452;2022-08-01T03:45:52;6.32;;;2.47;;
54261;SDS011;40174;52.364;6.452;2022-08-01T03:48:20;5.28;;;2.33;;
54261;SDS011;40174;52.364;6.452;2022-08-01T03:50:53;7.05;;;2.63;;
54261;SDS011;40174;52.364;6.452;2022-08-01T03:53:22;6.95;;;2.80;;
54261;SDS011;40174;52.364;6.452;2022-08-01T03:55:56;6.30;;;2.55;;
54261;SDS011;40174;52.364;6.452;2022-08-01T03:58:26;6.63;;;2.70;;
54261;SDS011;40174;52.364;6.452;2022-08-01T04:00:54;5.78;;;2.47;;
54261;SDS011;40174;52.364;6.452;2022-08-01T04:03:21;5.55;;;2.33;;
54261;SDS011;40174;52.364;6.452;2022-08-01T04:05:48;6.60;;;2.55;;
54261;SDS011;40174;52.364;6.452;2022-08-01T04:08:15;5.78;;;2.67;;
54261;SDS011;40174;52.364;6.452;2022-08-01T04:10:42;5.57;;;2.42;;
54261;SDS011;40174;52.364;6.452;2022-08-01T04:13:10;6.03;;;2.65;;
54261;SDS011;40174;52.364;6.452;2022-08-01T04:15:37;5.25;;;2.30;;
54261;SDS011;40174;52.364;6.452;2022-08-01T04:18:03;5.60;;;2.60;;
54261;SDS011;40174;52.364;6.452;2022-08-01T04:20:31;3.70;;;1.85;;
54261;SDS011;40174;52.364;6.452;2022-08-01T04:22:58;4.72;;;2.10;;
54261;SDS011;40174;52.364;6.452;2022-08-01T04:25:26;4.57;;;1.70;;
54261;SDS011;40174;52.364;6.452;2022-08-01T04:27:55;3.85;;;1.58;;
54261;SDS011;40174;52.364;6.452;2022-08-01T04:30:26;3.72;;;1.73;;
54261;SDS011;40174;52.364;6.452;2022-08-01T04:32:55;3.97;;;1.70;;
54261;SDS011;40174;52.364;6.452;2022-08-01T04:35:25;5.35;;;1.77;;
54261;SDS011;40174;52.364;6.452;2022-08-01T04:37:54;3.28;;;1.63;;
54261;SDS011;40174;52.364;6.452;2022-08-01T04:40:22;3.67;;;1.60;;
54261;SDS011;40174;52.364;6.452;2022-08-01T04:42:51;3.28;;;1.33;;
54261;SDS011;40174;52.364;6.452;2022-08-01T04:45:18;5.32;;;1.75;;
54261;SDS011;40174;52.364;6.452;2022-08-01T04:47:46;3.70;;;1.63;;
54261;SDS011;40174;52.364;6.452;2022-08-01T04:50:13;5.70;;;1.70;;
54261;SDS011;40174;52.364;6.452;2022-08-01T04:52:40;5.00;;;2.35;;
54261;SDS011;40174;52.364;6.452;2022-08-01T04:55:08;3.75;;;1.90;;
54261;SDS011;40174;52.364;6.452;2022-08-01T04:57:36;3.83;;;1.80;;
54261;SDS011;40174;52.364;6.452;2022-08-01T05:00:05;3.78;;;1.90;;
54261;SDS011;40174;52.364;6.452;2022-08-01T05:02:33;4.90;;;1.95;;
54261;SDS011;40174;52.364;6.452;2022-08-01T05:05:01;4.68;;;1.95;;
54261;SDS011;40174;52.364;6.452;2022-08-01T05:07:31;3.95;;;1.70;;
54261;SDS011;40174;52.364;6.452;2022-08-01T05:09:57;4.65;;;1.77;;
54261;SDS011;40174;52.364;6.452;2022-08-01T05:12:26;5.18;;;1.80;;
54261;SDS011;40174;52.364;6.452;2022-08-01T05:14:52;3.55;;;1.85;;
54261;SDS011;40174;52.364;6.452;2022-08-01T05:17:19;4.15;;;1.70;;
54261;SDS011;40174;52.364;6.452;2022-08-01T05:19:46;6.97;;;2.50;;
54261;SDS011;40174;52.364;6.452;2022-08-01T05:22:14;4.57;;;1.98;;
54261;SDS011;40174;52.364;6.452;2022-08-01T05:24:40;4.65;;;1.98;;
54261;SDS011;40174;52.364;6.452;2022-08-01T05:27:07;4.55;;;1.60;;
54261;SDS011;40174;52.364;6.452;2022-08-01T05:29:34;3.70;;;1.77;;
54261;SDS011;40174;52.364;6.452;2022-08-01T05:32:01;2.80;;;1.58;;
54261;SDS011;40174;52.364;6.452;2022-08-01T05:34:28;4.50;;;2.28;;
54261;SDS011;40174;52.364;6.452;2022-08-01T05:36:55;5.05;;;2.10;;
54261;SDS011;40174;52.364;6.452;2022-08-01T05:39:23;4.63;;;2.10;;
54261;SDS011;40174;52.364;6.452;2022-08-01T05:41:49;5.75;;;2.15;;
54261;SDS011;40174;52.364;6.452;2022-08-01T05:44:16;6.50;;;2.13;;
54261;SDS011;40174;52.364;6.452;2022-08-01T05:46:43;5.75;;;2.15;;
54261;SDS011;40174;52.364;6.452;2022-08-01T05:49:09;4.97;;;2.22;;
54261;SDS011;40174;52.364;6.452;2022-08-01T05:51:36;5.43;;;2.33;;
54261;SDS011;40174;52.364;6.452;2022-08-01T05:54:02;5.03;;;2.05;;
54261;SDS011;40174;52.364;6.452;2022-08-01T05:56:30;3.38;;;1.73;;
54261;SDS011;40174;52.364;6.452;2022-08-01T05:58:57;6.60;;;2.13;;
54261;SDS011;40174;52.364;6.452;2022-08-01T06:01:23;9.18;;;2.35;;
54261;SDS011;40174;52.364;6.452;2022-08-01T06:03:50;3.95;;;1.90;;
54261;SDS011;40174;52.364;6.452;2022-08-01T06:06:19;3.85;;;1.95;;
54261;SDS011;40174;52.364;6.452;2022-08-01T06:08:45;4.57;;;1.83;;
54261;SDS011;40174;52.364;6.452;2022-08-01T06:11:12;6.15;;;1.55;;
54261;SDS011;40174;52.364;6.452;2022-08-01T06:13:40;5.82;;;1.52;;
54261;SDS011;40174;52.364;6.452;2022-08-01T06:16:07;3.85;;;1.55;;
54261;SDS011;40174;52.364;6.452;2022-08-01T06:18:33;6.90;;;1.92;;
54261;SDS011;40174;52.364;6.452;2022-08-01T06:21:00;5.47;;;2.13;;
54261;SDS011;40174;52.364;6.452;2022-08-01T06:23:26;5.20;;;1.50;;
54261;SDS011;40174;52.364;6.452;2022-08-01T06:25:53;6.03;;;1.77;;
54261;SDS011;40174;52.364;6.452;2022-08-01T06:28:20;4.60;;;1.38;;
54261;SDS011;40174;52.364;6.452;2022-08-01T06:30:48;5.90;;;1.63;;
54261;SDS011;40174;52.364;6.452;2022-08-01T06:33:14;5.07;;;1.92;;
54261;SDS011;40174;52.364;6.452;2022-08-01T06:35:41;3.50;;;1.52;;
54261;SDS011;40174;52.364;6.452;2022-08-01T06:38:07;5.95;;;1.90;;
54261;SDS011;40174;52.364;6.452;2022-08-01T06:40:34;5.60;;;1.50;;
54261;SDS011;40174;52.364;6.452;2022-08-01T06:43:01;4.68;;;1.80;;
54261;SDS011;40174;52.364;6.452;2022-08-01T06:45:27;3.03;;;1.75;;
54261;SDS011;40174;52.364;6.452;2022-08-01T06:47:55;4.15;;;1.70;;
54261;SDS011;40174;52.364;6.452;2022-08-01T06:50:21;2.95;;;1.30;;
54261;SDS011;40174;52.364;6.452;2022-08-01T06:52:48;4.25;;;1.90;;
54261;SDS011;40174;52.364;6.452;2022-08-01T06:55:15;8.98;;;1.80;;
54261;SDS011;40174;52.364;6.452;2022-08-01T06:57:45;4.53;;;1.73;;
54261;SDS011;40174;52.364;6.452;2022-08-01T07:00:13;7.03;;;2.08;;
54261;SDS011;40174;52.364;6.452;2022-08-01T07:02:41;7.00;;;1.80;;
54261;SDS011;40174;52.364;6.452;2022-08-01T07:05:09;4.63;;;1.63;;
54261;SDS011;40174;52.364;6.452;2022-08-01T07:07:36;5.38;;;1.98;;
54261;SDS011;40174;52.364;6.452;2022-08-01T07:10:03;4.72;;;1.42;;
54261;SDS011;40174;52.364;6.452;2022-08-01T07:12:30;8.38;;;2.00;;
54261;SDS011;40174;52.364;6.452;2022-08-01T07:14:58;4.47;;;1.40;;
54261;SDS011;40174;52.364;6.452;2022-08-01T07:17:24;8.95;;;2.08;;
54261;SDS011;40174;52.364;6.452;2022-08-01T07:19:51;4.03;;;1.50;;
54261;SDS011;40174;52.364;6.452;2022-08-01T07:22:20;3.97;;;1.40;;
54261;SDS011;40174;52.364;6.452;2022-08-01T07:24:47;6.45;;;1.70;;
54261;SDS011;40174;52.364;6.452;2022-08-01T07:27:13;6.78;;;1.73;;
54261;SDS011;40174;52.364;6.452;2022-08-01T07:29:40;5.03;;;1.70;;
54261;SDS011;40174;52.364;6.452;2022-08-01T07:32:07;5.20;;;1.40;;
54261;SDS011;40174;52.364;6.452;2022-08-01T07:34:33;4.95;;;1.50;;
54261;SDS011;40174;52.364;6.452;2022-08-01T07:37:00;4.90;;;2.33;;
54261;SDS011;40174;52.364;6.452;2022-08-01T07:39:28;5.78;;;1.42;;
54261;SDS011;40174;52.364;6.452;2022-08-01T07:41:54;5.72;;;1.40;;
54261;SDS011;40174;52.364;6.452;2022-08-01T07:44:21;7.15;;;2.00;;
54261;SDS011;40174;52.364;6.452;2022-08-01T07:46:47;6.90;;;2.22;;
54261;SDS011;40174;52.364;6.452;2022-08-01T07:49:14;7.25;;;2.08;;
54261;SDS011;40174;52.364;6.452;2022-08-01T07:51:40;6.60;;;2.00;;
54261;SDS011;40174;52.364;6.452;2022-08-01T07:54:07;7.10;;;2.00;;
54261;SDS011;40174;52.364;6.452;2022-08-01T07:56:35;5.30;;;1.80;;
54261;SDS011;40174;52.364;6.452;2022-08-01T07:59:01;3.72;;;1.38;;
54261;SDS011;40174;52.364;6.452;2022-08-01T08:01:28;10.70;;;2.10;;
54261;SDS011;40174;52.364;6.452;2022-08-01T08:03:55;6.63;;;2.13;;
54261;SDS011;40174;52.364;6.452;2022-08-01T08:06:21;9.40;;;2.45;;
54261;SDS011;40174;52.364;6.452;2022-08-01T08:08:48;13.35;;;2.58;;
54261;SDS011;40174;52.364;6.452;2022-08-01T08:11:14;19.95;;;2.85;;
54261;SDS011;40174;52.364;6.452;2022-08-01T08:13:42;10.55;;;2.40;;
54261;SDS011;40174;52.364;6.452;2022-08-01T08:16:09;7.43;;;2.10;;
54261;SDS011;40174;52.364;6.452;2022-08-01T08:18:35;13.20;;;2.22;;
54261;SDS011;40174;52.364;6.452;2022-08-01T08:21:03;9.00;;;2.00;;
54261;SDS011;40174;52.364;6.452;2022-08-01T08:23:29;11.45;;;1.98;;
54261;SDS011;40174;52.364;6.452;2022-08-01T08:26:14;7.50;;;1.95;;
54261;SDS011;40174;52.364;6.452;2022-08-01T08:28:40;10.02;;;2.08;;
54261;SDS011;40174;52.364;6.452;2022-08-01T08:31:08;8.85;;;2.25;;
54261;SDS011;40174;52.364;6.452;2022-08-01T08:33:35;8.45;;;2.13;;
54261;SDS011;40174;52.364;6.452;2022-08-01T08:36:01;3.30;;;1.65;;
54261;SDS011;40174;52.364;6.452;2022-08-01T08:38:28;8.30;;;2.05;;
54261;SDS011;40174;52.364;6.452;2022-08-01T08:40:54;7.05;;;2.03;;
54261;SDS011;40174;52.364;6.452;2022-08-01T08:43:22;12.00;;;2.63;;
54261;SDS011;40174;52.364;6.452;2022-08-01T08:45:51;9.35;;;2.20;;
54261;SDS011;40174;52.364;6.452;2022-08-01T08:48:19;6.57;;;2.17;;
54261;SDS011;40174;52.364;6.452;2022-08-01T08:50:47;5.80;;;1.88;;
54261;SDS011;40174;52.364;6.452;2022-08-01T08:53:14;10.63;;;2.65;;
54261;SDS011;40174;52.364;6.452;2022-08-01T08:55:42;7.93;;;3.13;;
54261;SDS011;40174;52.364;6.452;2022-08-01T08:58:10;6.63;;;2.05;;
54261;SDS011;40174;52.364;6.452;2022-08-01T09:00:39;6.60;;;1.80;;
54261;SDS011;40174;52.364;6.452;2022-08-01T09:03:06;7.95;;;2.10;;
54261;SDS011;40174;52.364;6.452;2022-08-01T09:05:34;9.25;;;1.95;;
54261;SDS011;40174;52.364;6.452;2022-08-01T09:08:00;13.18;;;2.60;;
54261;SDS011;40174;52.364;6.452;2022-08-01T09:10:27;5.57;;;1.77;;
54261;SDS011;40174;52.364;6.452;2022-08-01T09:13:07;8.75;;;1.90;;
54261;SDS011;40174;52.364;6.452;2022-08-01T09:15:43;11.88;;;1.92;;
54261;SDS011;40174;52.364;6.452;2022-08-01T09:18:26;6.75;;;1.48;;
54261;SDS011;40174;52.364;6.452;2022-08-01T09:21:09;4.43;;;1.42;;
54261;SDS011;40174;52.364;6.452;2022-08-01T09:23:38;5.97;;;1.60;;
54261;SDS011;40174;52.364;6.452;2022-08-01T09:26:07;8.25;;;1.95;;
54261;SDS011;40174;52.364;6.452;2022-08-01T09:28:34;6.25;;;1.90;;
54261;SDS011;40174;52.364;6.452;2022-08-01T09:31:05;5.72;;;1.80;;
54261;SDS011;40174;52.364;6.452;2022-08-01T09:33:45;7.07;;;1.70;;
54261;SDS011;40174;52.364;6.452;2022-08-01T09:36:15;7.63;;;2.47;;
54261;SDS011;40174;52.364;6.452;2022-08-01T09:38:42;8.43;;;1.98;;
54261;SDS011;40174;52.364;6.452;2022-08-01T09:41:08;6.05;;;1.60;;
54261;SDS011;40174;52.364;6.452;2022-08-01T09:43:36;5.28;;;1.42;;
54261;SDS011;40174;52.364;6.452;2022-08-01T09:46:04;7.53;;;1.88;;
54261;SDS011;40174;52.364;6.452;2022-08-01T09:48:34;7.93;;;1.75;;
54261;SDS011;40174;52.364;6.452;2022-08-01T09:51:04;7.68;;;1.60;;
54261;SDS011;40174;52.364;6.452;2022-08-01T09:53:44;9.18;;;1.98;;
54261;SDS011;40174;52.364;6.452;2022-08-01T09:56:12;10.80;;;1.63;;
54261;SDS011;40174;52.364;6.452;2022-08-01T09:58:48;8.30;;;2.08;;
54261;SDS011;40174;52.364;6.452;2022-08-01T10:01:20;6.35;;;1.80;;
54261;SDS011;40174;52.364;6.452;2022-08-01T10:03:47;5.90;;;1.80;;
54261;SDS011;40174;52.364;6.452;2022-08-01T10:06:31;5.53;;;1.45;;
54261;SDS011;40174;52.364;6.452;2022-08-01T10:08:59;7.68;;;1.52;;
54261;SDS011;40174;52.364;6.452;2022-08-01T10:11:25;4.05;;;1.27;;
54261;SDS011;40174;52.364;6.452;2022-08-01T10:13:54;3.45;;;1.10;;
54261;SDS011;40174;52.364;6.452;2022-08-01T10:16:22;5.18;;;1.48;;
54261;SDS011;40174;52.364;6.452;2022-08-01T10:18:50;4.53;;;0.95;;
54261;SDS011;40174;52.364;6.452;2022-08-01T10:21:18;3.50;;;1.00;;
54261;SDS011;40174;52.364;6.452;2022-08-01T10:23:45;6.05;;;1.20;;
54261;SDS011;40174;52.364;6.452;2022-08-01T10:26:13;6.00;;;1.20;;
54261;SDS011;40174;52.364;6.452;2022-08-01T10:28:40;12.30;;;2.42;;
54261;SDS011;40174;52.364;6.452;2022-08-01T10:31:09;3.10;;;1.00;;
54261;SDS011;40174;52.364;6.452;2022-08-01T10:33:37;8.13;;;1.50;;
54261;SDS011;40174;52.364;6.452;2022-08-01T10:36:06;4.03;;;1.30;;
54261;SDS011;40174;52.364;6.452;2022-08-01T10:38:33;5.78;;;1.27;;
54261;SDS011;40174;52.364;6.452;2022-08-01T10:41:00;8.07;;;1.52;;
54261;SDS011;40174;52.364;6.452;2022-08-01T10:43:30;5.60;;;1.35;;
54261;SDS011;40174;52.364;6.452;2022-08-01T10:45:56;4.53;;;1.25;;
54261;SDS011;40174;52.364;6.452;2022-08-01T10:48:26;10.73;;;1.77;;
54261;SDS011;40174;52.364;6.452;2022-08-01T10:50:57;3.88;;;1.00;;
54261;SDS011;40174;52.364;6.452;2022-08-01T10:53:28;3.55;;;1.38;;
54261;SDS011;40174;52.364;6.452;2022-08-01T10:55:57;8.45;;;1.50;;
54261;SDS011;40174;52.364;6.452;2022-08-01T10:58:26;4.88;;;1.23;;
54261;SDS011;40174;52.364;6.452;2022-08-01T11:04:05;5.03;;;1.38;;
54261;SDS011;40174;52.364;6.452;2022-08-01T11:06:41;7.82;;;1.27;;
54261;SDS011;40174;52.364;6.452;2022-08-01T11:09:17;6.78;;;1.70;;
54261;SDS011;40174;52.364;6.452;2022-08-01T11:11:57;5.40;;;1.05;;
54261;SDS011;40174;52.364;6.452;2022-08-01T11:14:27;5.88;;;1.23;;
54261;SDS011;40174;52.364;6.452;2022-08-01T11:16:54;4.05;;;1.05;;
54261;SDS011;40174;52.364;6.452;2022-08-01T11:19:22;7.50;;;0.90;;
54261;SDS011;40174;52.364;6.452;2022-08-01T11:21:58;10.80;;;1.70;;
54261;SDS011;40174;52.364;6.452;2022-08-01T11:27:24;3.95;;;1.10;;
54261;SDS011;40174;52.364;6.452;2022-08-01T11:32:55;6.25;;;1.27;;
54261;SDS011;40174;52.364;6.452;2022-08-01T11:35:24;6.30;;;1.10;;
54261;SDS011;40174;52.364;6.452;2022-08-01T11:37:52;3.08;;;0.80;;
54261;SDS011;40174;52.364;6.452;2022-08-01T11:40:21;33.15;;;3.40;;
54261;SDS011;40174;52.364;6.452;2022-08-01T11:42:49;10.77;;;1.52;;
54261;SDS011;40174;52.364;6.452;2022-08-01T11:45:17;4.53;;;1.13;;
54261;SDS011;40174;52.364;6.452;2022-08-01T11:47:44;3.53;;;0.85;;
54261;SDS011;40174;52.364;6.452;2022-08-01T11:50:35;4.03;;;0.95;;
54261;SDS011;40174;52.364;6.452;2022-08-01T11:53:02;32.35;;;2.65;;
54261;SDS011;40174;52.364;6.452;2022-08-01T11:55:31;8.90;;;1.10;;
54261;SDS011;40174;52.364;6.452;2022-08-01T11:58:00;6.38;;;1.05;;
54261;SDS011;40174;52.364;6.452;2022-08-01T12:00:27;29.35;;;3.15;;
54261;SDS011;40174;52.364;6.452;2022-08-01T12:02:58;19.63;;;2.28;;
54261;SDS011;40174;52.364;6.452;2022-08-01T12:05:26;40.53;;;3.47;;
54261;SDS011;40174;52.364;6.452;2022-08-01T12:07:56;10.73;;;1.10;;
54261;SDS011;40174;52.364;6.452;2022-08-01T12:10:24;4.07;;;1.08;;
54261;SDS011;40174;52.364;6.452;2022-08-01T12:12:52;5.15;;;0.93;;
54261;SDS011;40174;52.364;6.452;2022-08-01T12:15:22;4.30;;;1.23;;
54261;SDS011;40174;52.364;6.452;2022-08-01T12:17:54;4.20;;;0.95;;
54261;SDS011;40174;52.364;6.452;2022-08-01T12:20:22;4.80;;;0.98;;
54261;SDS011;40174;52.364;6.452;2022-08-01T12:22:52;9.02;;;1.30;;
54261;SDS011;40174;52.364;6.452;2022-08-01T12:25:20;6.32;;;1.02;;
54261;SDS011;40174;52.364;6.452;2022-08-01T12:27:47;7.97;;;1.50;;
54261;SDS011;40174;52.364;6.452;2022-08-01T12:30:15;6.07;;;1.00;;
54261;SDS011;40174;52.364;6.452;2022-08-01T12:32:44;7.32;;;1.10;;
54261;SDS011;40174;52.364;6.452;2022-08-01T12:35:12;7.40;;;1.40;;
54261;SDS011;40174;52.364;6.452;2022-08-01T12:37:40;6.70;;;1.67;;
54261;SDS011;40174;52.364;6.452;2022-08-01T12:40:09;3.45;;;0.90;;
54261;SDS011;40174;52.364;6.452;2022-08-01T12:42:40;5.90;;;1.25;;
54261;SDS011;40174;52.364;6.452;2022-08-01T12:45:08;5.57;;;1.17;;
54261;SDS011;40174;52.364;6.452;2022-08-01T12:47:37;7.45;;;1.15;;
54261;SDS011;40174;52.364;6.452;2022-08-01T12:50:05;2.55;;;0.90;;
54261;SDS011;40174;52.364;6.452;2022-08-01T12:52:33;4.95;;;1.40;;
54261;SDS011;40174;52.364;6.452;2022-08-01T12:55:01;3.05;;;1.20;;
54261;SDS011;40174;52.364;6.452;2022-08-01T12:57:33;2.70;;;0.80;;
54261;SDS011;40174;52.364;6.452;2022-08-01T13:00:11;1.58;;;0.75;;
54261;SDS011;40174;52.364;6.452;2022-08-01T13:02:44;4.18;;;0.80;;
54261;SDS011;40174;52.364;6.452;2022-08-01T13:05:12;1.63;;;0.70;;
54261;SDS011;40174;52.364;6.452;2022-08-01T13:07:43;6.45;;;0.90;;
54261;SDS011;40174;52.364;6.452;2022-08-01T13:10:12;4.80;;;0.80;;
54261;SDS011;40174;52.364;6.452;2022-08-01T13:12:40;2.47;;;0.80;;
54261;SDS011;40174;52.364;6.452;2022-08-01T13:15:20;4.93;;;1.02;;
54261;SDS011;40174;52.364;6.452;2022-08-01T13:17:49;7.68;;;0.80;;
54261;SDS011;40174;52.364;6.452;2022-08-01T13:20:23;4.15;;;0.93;;
54261;SDS011;40174;52.364;6.452;2022-08-01T13:23:13;4.65;;;1.02;;
54261;SDS011;40174;52.364;6.452;2022-08-01T13:25:47;6.72;;;1.42;;
54261;SDS011;40174;52.364;6.452;2022-08-01T13:28:15;5.82;;;1.00;;
54261;SDS011;40174;52.364;6.452;2022-08-01T13:30:51;4.13;;;1.00;;
54261;SDS011;40174;52.364;6.452;2022-08-01T13:33:19;5.07;;;1.30;;
54261;SDS011;40174;52.364;6.452;2022-08-01T13:35:45;4.68;;;1.02;;
54261;SDS011;40174;52.364;6.452;2022-08-01T13:38:12;2.88;;;0.70;;
54261;SDS011;40174;52.364;6.452;2022-08-01T13:40:39;3.35;;;0.88;;
54261;SDS011;40174;52.364;6.452;2022-08-01T13:43:05;4.80;;;0.80;;
54261;SDS011;40174;52.364;6.452;2022-08-01T13:45:32;2.80;;;0.88;;
54261;SDS011;40174;52.364;6.452;2022-08-01T13:48:01;3.65;;;0.90;;
54261;SDS011;40174;52.364;6.452;2022-08-01T13:50:28;8.07;;;1.20;;
54261;SDS011;40174;52.364;6.452;2022-08-01T13:52:54;2.13;;;0.60;;
54261;SDS011;40174;52.364;6.452;2022-08-01T13:55:21;7.55;;;1.20;;
54261;SDS011;40174;52.364;6.452;2022-08-01T13:57:47;4.05;;;0.90;;
54261;SDS011;40174;52.364;6.452;2022-08-01T14:00:15;6.45;;;1.10;;
54261;SDS011;40174;52.364;6.452;2022-08-01T14:02:42;2.97;;;0.82;;
54261;SDS011;40174;52.364;6.452;2022-08-01T14:05:10;4.63;;;0.80;;
54261;SDS011;40174;52.364;6.452;2022-08-01T14:07:36;3.10;;;0.82;;
54261;SDS011;40174;52.364;6.452;2022-08-01T14:10:03;1.52;;;0.60;;
54261;SDS011;40174;52.364;6.452;2022-08-01T14:12:30;3.88;;;0.80;;
54261;SDS011;40174;52.364;6.452;2022-08-01T14:14:57;4.15;;;1.08;;
54261;SDS011;40174;52.364;6.452;2022-08-01T14:17:24;5.03;;;0.80;;
54261;SDS011;40174;52.364;6.452;2022-08-01T14:19:50;2.67;;;0.85;;
54261;SDS011;40174;52.364;6.452;2022-08-01T14:22:18;3.65;;;0.90;;
54261;SDS011;40174;52.364;6.452;2022-08-01T14:24:44;3.28;;;0.82;;
54261;SDS011;40174;52.364;6.452;2022-08-01T14:27:14;4.75;;;1.00;;
54261;SDS011;40174;52.364;6.452;2022-08-01T14:29:40;5.47;;;0.80;;
54261;SDS011;40174;52.364;6.452;2022-08-01T14:32:07;2.05;;;0.70;;
54261;SDS011;40174;52.364;6.452;2022-08-01T14:34:34;3.20;;;0.70;;
54261;SDS011;40174;52.364;6.452;2022-08-01T14:37:00;6.25;;;1.27;;
54261;SDS011;40174;52.364;6.452;2022-08-01T14:39:31;4.97;;;0.85;;
54261;SDS011;40174;52.364;6.452;2022-08-01T14:41:57;3.20;;;0.73;;
54261;SDS011;40174;52.364;6.452;2022-08-01T14:44:24;2.35;;;0.80;;
54261;SDS011;40174;52.364;6.452;2022-08-01T14:46:50;3.25;;;0.70;;
54261;SDS011;40174;52.364;6.452;2022-08-01T14:49:17;5.35;;;1.02;;
54261;SDS011;40174;52.364;6.452;2022-08-01T14:51:44;0.70;;;0.55;;
54261;SDS011;40174;52.364;6.452;2022-08-01T14:54:11;3.13;;;0.60;;
54261;SDS011;40174;52.364;6.452;2022-08-01T14:56:40;6.10;;;1.25;;
54261;SDS011;40174;52.364;6.452;2022-08-01T14:59:06;6.57;;;1.02;;
54261;SDS011;40174;52.364;6.452;2022-08-01T15:01:33;3.08;;;0.50;;
54261;SDS011;40174;52.364;6.452;2022-08-01T15:03:59;1.38;;;0.70;;
54261;SDS011;40174;52.364;6.452;2022-08-01T15:06:26;4.45;;;0.80;;